createdAt,value
2022-12-17T00:02:14.656Z,101930.34
2022-12-17T00:04:59.956Z,101932.91
2022-12-17T00:07:45.137Z,101934.25
2022-12-17T00:10:30.342Z,101939.84
2022-12-17T00:13:15.470Z,101947.13
2022-12-17T00:16:01.272Z,101938.03
2022-12-17T00:18:46.589Z,101958.06
2022-12-17T00:21:31.758Z,101958.97
2022-12-17T00:24:17.060Z,101956.28
2022-12-17T00:27:02.318Z,101954.94
2022-12-17T00:29:47.654Z,101950.84
2022-12-17T00:32:32.942Z,101947.53
2022-12-17T00:35:18.166Z,101939.00
2022-12-17T00:38:18.673Z,101939.03
2022-12-17T00:41:09.412Z,101937.31
2022-12-17T00:43:56.366Z,101931.38
2022-12-17T00:46:41.677Z,101931.38
2022-12-17T00:49:26.934Z,101917.44
2022-12-17T00:52:12.144Z,101911.47
2022-12-17T00:54:57.374Z,101887.19
2022-12-17T00:57:42.609Z,101897.47
2022-12-17T01:00:28.490Z,101908.91
2022-12-17T01:03:27.997Z,101911.66
2022-12-17T01:06:13.393Z,101901.25
2022-12-17T01:08:59.224Z,101906.66
2022-12-17T01:11:44.611Z,101910.19
2022-12-17T01:14:29.874Z,101912.03
2022-12-17T01:17:15.120Z,101915.59
2022-12-17T01:20:00.499Z,101915.63
2022-12-17T01:22:45.836Z,101923.50
2022-12-17T01:25:31.265Z,101915.56
2022-12-17T01:28:16.637Z,101916.47
2022-12-17T01:31:01.873Z,101921.63
2022-12-17T01:33:47.116Z,101929.56
2022-12-17T01:36:32.335Z,101933.13
2022-12-17T01:39:17.573Z,101933.03
2022-12-17T01:42:02.857Z,101935.63
2022-12-17T01:45:09.464Z,101938.00
2022-12-17T01:47:59.824Z,101946.69
2022-12-17T01:50:50.282Z,101945.69
2022-12-17T01:53:41.366Z,101948.16
2022-12-17T01:56:26.646Z,101943.09
2022-12-17T01:59:12.309Z,101950.72
2022-12-17T02:01:58.731Z,101954.53
2022-12-17T02:04:43.926Z,101963.88
2022-12-17T02:07:45.600Z,101962.25
2022-12-17T02:10:56.548Z,101963.81
2022-12-17T02:13:51.229Z,101962.38
2022-12-17T02:16:42.981Z,101968.91
2022-12-17T02:20:10.573Z,101976.13
2022-12-17T02:23:11.207Z,101981.38
2022-12-17T02:26:34.826Z,101979.78
2022-12-17T02:29:23.500Z,101979.38
2022-12-17T02:32:10.472Z,101967.19
2022-12-17T02:35:03.585Z,101963.75
2022-12-17T02:37:48.924Z,101964.47
2022-12-17T02:40:36.123Z,101950.47
2022-12-17T02:43:21.900Z,101965.88
2022-12-17T02:46:08.640Z,101956.38
2022-12-17T02:48:53.877Z,101958.16
2022-12-17T02:51:40.426Z,101960.84
2022-12-17T02:54:26.636Z,101961.47
2022-12-17T02:57:12.801Z,101965.09
2022-12-17T02:59:57.985Z,101966.88
2022-12-17T03:02:43.331Z,101971.97
2022-12-17T03:05:44.473Z,101963.78
2022-12-17T03:08:50.399Z,101974.53
2022-12-17T03:11:35.722Z,101980.81
2022-12-17T03:14:20.833Z,101989.59
2022-12-17T03:17:06.020Z,101989.34
2022-12-17T03:19:51.211Z,101982.75
2022-12-17T03:22:36.542Z,101982.06
2022-12-17T03:25:22.236Z,101973.31
2022-12-17T03:28:07.513Z,101963.69
2022-12-17T03:30:52.608Z,101959.38
2022-12-17T03:33:38.605Z,101957.63
2022-12-17T03:36:24.046Z,101975.13
2022-12-17T03:39:09.236Z,101973.34
2022-12-17T03:41:54.646Z,101969.84
2022-12-17T03:44:40.008Z,101961.91
2022-12-17T03:47:25.187Z,101966.13
2022-12-17T03:50:10.299Z,101965.13
2022-12-17T03:52:55.608Z,101967.72
2022-12-17T03:55:40.924Z,101966.94
2022-12-17T03:58:26.087Z,101960.69
2022-12-17T04:01:11.515Z,101972.41
2022-12-17T04:03:57.068Z,101977.44
2022-12-17T04:06:42.537Z,101982.00
2022-12-17T04:09:27.887Z,101978.09
2022-12-17T04:12:12.880Z,101991.25
2022-12-17T04:14:58.112Z,101992.44
2022-12-17T04:17:43.194Z,101997.63
2022-12-17T04:20:29.205Z,102009.34
2022-12-17T04:23:14.445Z,102010.16
2022-12-17T04:25:59.727Z,102018.91
2022-12-17T04:28:44.969Z,102028.38
2022-12-17T04:31:30.287Z,102033.88
2022-12-17T04:34:15.486Z,102024.38
2022-12-17T04:37:00.649Z,102034.56
2022-12-17T04:39:45.955Z,102042.53
2022-12-17T04:42:31.246Z,102045.69
2022-12-17T04:45:16.456Z,102052.09
2022-12-17T04:48:01.762Z,102063.63
2022-12-17T04:50:46.935Z,102050.13
2022-12-17T04:53:32.355Z,102070.44
2022-12-17T04:56:17.597Z,102081.66
2022-12-17T04:59:02.960Z,102082.44
2022-12-17T05:01:48.266Z,102097.69
2022-12-17T05:04:33.566Z,102095.53
2022-12-17T05:07:18.799Z,102104.56
2022-12-17T05:10:04.133Z,102101.16
2022-12-17T05:12:49.428Z,102105.72
2022-12-17T05:15:34.662Z,102109.38
2022-12-17T05:18:29.234Z,102109.34
2022-12-17T05:21:14.410Z,102115.84
2022-12-17T05:23:59.604Z,102109.97
2022-12-17T05:26:47.269Z,102100.16
2022-12-17T05:29:32.412Z,102091.50
2022-12-17T05:32:18.308Z,102090.75
2022-12-17T05:35:03.508Z,102087.63
2022-12-17T05:37:48.814Z,102086.19
2022-12-17T05:40:33.938Z,102075.88
2022-12-17T05:43:23.383Z,102075.28
2022-12-17T05:46:09.994Z,102064.13
2022-12-17T05:48:55.076Z,102075.81
2022-12-17T05:51:40.987Z,102072.25
2022-12-17T05:54:26.817Z,102067.22
2022-12-17T05:57:13.016Z,102072.59
2022-12-17T05:59:58.606Z,102080.59
2022-12-17T06:02:43.894Z,102086.97
2022-12-17T06:05:29.610Z,102087.91
2022-12-17T06:08:26.011Z,102091.56
2022-12-17T06:11:11.283Z,102101.25
2022-12-17T06:13:56.651Z,102091.75
2022-12-17T06:16:42.150Z,102091.81
2022-12-17T06:19:27.516Z,102090.97
2022-12-17T06:22:12.784Z,102090.25
2022-12-17T06:24:58.062Z,102094.69
2022-12-17T06:27:43.271Z,102099.25
2022-12-17T06:30:29.030Z,102097.50
2022-12-17T06:33:29.838Z,102091.41
2022-12-17T06:36:22.086Z,102103.56
2022-12-17T06:39:08.057Z,102104.69
2022-12-17T06:42:02.132Z,102090.78
2022-12-17T06:44:49.385Z,102086.47
2022-12-17T06:47:34.742Z,102078.53
2022-12-17T06:50:20.074Z,102085.66
2022-12-17T06:53:05.426Z,102085.59
2022-12-17T06:55:53.990Z,102078.66
2022-12-17T06:58:39.250Z,102081.19
2022-12-17T07:01:24.709Z,102079.34
2022-12-17T07:04:10.241Z,102103.84
2022-12-17T07:06:55.432Z,102107.22
2022-12-17T07:09:40.555Z,102113.41
2022-12-17T07:12:25.845Z,102114.41
2022-12-17T07:15:11.245Z,102123.97
2022-12-17T07:17:56.614Z,102126.66
2022-12-17T07:20:41.800Z,102124.31
2022-12-17T07:23:27.578Z,102112.13
2022-12-17T07:26:13.185Z,102108.66
2022-12-17T07:29:00.090Z,102118.31
2022-12-17T07:31:45.388Z,102117.41
2022-12-17T07:34:31.492Z,102116.69
2022-12-17T07:37:20.491Z,102113.13
2022-12-17T07:40:06.347Z,102114.94
2022-12-17T07:42:51.682Z,102111.50
2022-12-17T07:45:37.012Z,102118.56
2022-12-17T07:48:22.691Z,102130.78
2022-12-17T07:51:08.661Z,102132.50
2022-12-17T07:53:53.891Z,102133.53
2022-12-17T07:56:39.223Z,102131.91
2022-12-17T07:59:24.323Z,102129.44
2022-12-17T08:02:09.930Z,102131.13
2022-12-17T08:04:55.880Z,102137.38
2022-12-17T08:07:41.071Z,102161.09
2022-12-17T08:10:26.985Z,102170.56
2022-12-17T08:13:17.015Z,102152.22
2022-12-17T08:16:02.095Z,102155.81
2022-12-17T08:18:47.883Z,102162.97
2022-12-17T08:21:33.582Z,102153.38
2022-12-17T08:24:18.772Z,102155.25
2022-12-17T08:27:04.038Z,102154.41
2022-12-17T08:29:49.289Z,102157.91
2022-12-17T08:32:35.099Z,102161.53
2022-12-17T08:35:20.908Z,102156.31
2022-12-17T08:38:06.060Z,102165.88
2022-12-17T08:40:51.443Z,102166.78
2022-12-17T08:43:37.269Z,102169.41
2022-12-17T08:46:36.833Z,102168.63
2022-12-17T08:49:21.912Z,102155.56
2022-12-17T08:52:07.380Z,102151.16
2022-12-17T08:54:52.764Z,102155.56
2022-12-17T08:57:41.525Z,102164.31
2022-12-17T09:00:28.406Z,102156.75
2022-12-17T09:03:20.923Z,102155.81
2022-12-17T09:06:06.767Z,102152.34
2022-12-17T09:08:51.914Z,102146.13
2022-12-17T09:11:37.290Z,102151.44
2022-12-17T09:14:22.459Z,102156.81
2022-12-17T09:17:07.810Z,102160.41
2022-12-17T09:19:53.080Z,102144.00
2022-12-17T09:22:38.315Z,102130.81
2022-12-17T09:25:24.080Z,102140.50
2022-12-17T09:28:09.271Z,102133.56
2022-12-17T09:30:54.591Z,102142.19
2022-12-17T09:33:40.213Z,102131.94
2022-12-17T09:36:26.186Z,102135.44
2022-12-17T09:39:11.442Z,102129.09
2022-12-17T09:42:34.544Z,102125.63
2022-12-17T09:45:26.839Z,102118.69
2022-12-17T09:48:54.759Z,102131.75
2022-12-17T09:51:44.698Z,102119.50
2022-12-17T09:55:00.975Z,102122.28
2022-12-17T09:57:50.653Z,102125.75
2022-12-17T10:00:47.362Z,102126.47
2022-12-17T10:03:40.068Z,102118.59
2022-12-17T10:06:37.581Z,102117.91
2022-12-17T10:09:31.393Z,102116.16
2022-12-17T10:12:21.125Z,102114.25
2022-12-17T10:15:06.303Z,102118.72
2022-12-17T10:17:51.518Z,102113.47
2022-12-17T10:20:43.965Z,102120.66
2022-12-17T10:23:29.294Z,102118.03
2022-12-17T10:26:15.482Z,102116.22
2022-12-17T10:29:00.922Z,102123.13
2022-12-17T10:31:48.867Z,102142.53
2022-12-17T10:34:38.991Z,102133.94
2022-12-17T10:37:25.185Z,102139.06
2022-12-17T10:40:18.706Z,102151.44
2022-12-17T10:43:05.012Z,102141.94
2022-12-17T10:45:53.080Z,102143.69
2022-12-17T10:48:58.483Z,102131.47
2022-12-17T10:51:53.068Z,102135.00
2022-12-17T10:54:50.042Z,102157.81
2022-12-17T10:58:02.285Z,102160.59
2022-12-17T11:00:50.528Z,102156.19
2022-12-17T11:04:02.671Z,102168.47
2022-12-17T11:06:54.998Z,102171.19
2022-12-17T11:09:52.391Z,102165.84
2022-12-17T11:12:44.521Z,102174.00
2022-12-17T11:15:38.192Z,102166.91
2022-12-17T11:18:29.699Z,102170.41
2022-12-17T11:21:24.864Z,102184.44
2022-12-17T11:24:11.314Z,102190.53
2022-12-17T11:27:00.016Z,102203.81
2022-12-17T11:29:45.768Z,102192.38
2022-12-17T11:32:53.385Z,102197.66
2022-12-17T11:35:54.557Z,102193.28
2022-12-17T11:38:52.128Z,102203.84
2022-12-17T11:41:43.745Z,102202.13
2022-12-17T11:45:30.440Z,102195.13
2022-12-17T11:48:20.273Z,102210.16
2022-12-17T11:51:47.077Z,102204.81
2022-12-17T11:54:52.089Z,102198.72
2022-12-17T11:57:47.383Z,102197.78
2022-12-17T12:00:41.258Z,102202.28
2022-12-17T12:03:32.542Z,102204.03
2022-12-17T12:06:19.869Z,102198.72
2022-12-17T12:09:26.955Z,102199.59
2022-12-17T12:12:28.980Z,102213.66
2022-12-17T12:15:45.009Z,102211.84
2022-12-17T12:19:09.344Z,102239.19
2022-12-17T12:21:54.497Z,102242.66
2022-12-17T12:24:46.825Z,102226.97
2022-12-17T12:27:45.662Z,102233.97
2022-12-17T12:30:35.542Z,102241.09
2022-12-17T12:33:49.076Z,102230.47
2022-12-17T12:36:37.292Z,102263.13
2022-12-17T12:39:24.106Z,102261.34
2022-12-17T12:42:16.994Z,102265.75
2022-12-17T12:45:21.915Z,102264.00
2022-12-17T12:48:30.541Z,102267.50
2022-12-17T12:51:38.145Z,102264.06
2022-12-17T12:55:02.628Z,102276.41
2022-12-17T12:58:15.311Z,102274.50
2022-12-17T13:01:06.810Z,102285.97
2022-12-17T13:03:56.802Z,102283.50
2022-12-17T13:06:59.146Z,102286.19
2022-12-17T13:09:34.197Z,102280.00
2022-12-17T13:12:04.640Z,102279.97
2022-12-17T13:14:34.283Z,102280.88
2022-12-17T13:17:06.977Z,102280.03
2022-12-17T13:19:39.645Z,102285.31
2022-12-17T13:22:36.428Z,102282.69
2022-12-17T13:25:17.588Z,102272.91
2022-12-17T13:27:44.362Z,102274.69
2022-12-17T13:30:17.302Z,102280.91
2022-12-17T13:32:56.606Z,102287.88
2022-12-17T13:36:03.969Z,102285.13
2022-12-17T13:38:37.996Z,102288.66
2022-12-17T13:41:13.356Z,102286.06
2022-12-17T13:43:52.378Z,102290.41
2022-12-17T13:46:25.326Z,102289.56
2022-12-17T13:49:00.874Z,102298.34
2022-12-17T13:51:29.872Z,102293.06
2022-12-17T13:54:01.896Z,102294.03
2022-12-17T13:56:37.949Z,102296.63
2022-12-17T13:59:09.120Z,102288.66
2022-12-17T14:01:48.901Z,102296.59
2022-12-17T14:04:24.699Z,102296.72
2022-12-17T14:06:56.766Z,102298.25
2022-12-17T14:09:35.649Z,102308.69
2022-12-17T14:12:24.567Z,102313.84
2022-12-17T14:15:17.411Z,102313.03
2022-12-17T14:17:46.106Z,102312.94
2022-12-17T14:20:22.625Z,102315.56
2022-12-17T14:22:55.965Z,102319.06
2022-12-17T14:25:25.970Z,102323.44
2022-12-17T14:27:58.722Z,102323.28
2022-12-17T14:30:33.323Z,102322.25
2022-12-17T14:33:00.334Z,102335.06
2022-12-17T14:35:32.830Z,102341.31
2022-12-17T14:37:59.648Z,102336.84
2022-12-17T14:40:26.719Z,102345.44
2022-12-17T14:43:00.264Z,102350.63
2022-12-17T14:45:28.810Z,102354.03
2022-12-17T14:48:00.899Z,102356.03
2022-12-17T14:50:29.915Z,102361.31
2022-12-17T14:52:58.813Z,102363.03
2022-12-17T14:55:38.727Z,102366.50
2022-12-17T14:58:11.343Z,102375.09
2022-12-17T15:00:39.924Z,102379.94
2022-12-17T15:03:20.134Z,102382.88
2022-12-17T15:05:51.509Z,102390.72
2022-12-17T15:08:19.469Z,102384.06
2022-12-17T15:10:46.181Z,102379.63
2022-12-17T15:13:13.329Z,102393.72
2022-12-17T15:15:40.004Z,102396.31
2022-12-17T15:18:06.681Z,102390.06
2022-12-17T15:20:33.420Z,102399.88
2022-12-17T15:23:01.756Z,102391.84
2022-12-17T15:25:28.521Z,102398.47
2022-12-17T15:27:55.500Z,102411.44
2022-12-17T15:30:22.308Z,102408.50
2022-12-17T15:32:48.944Z,102401.66
2022-12-17T15:35:15.608Z,102400.63
2022-12-17T15:37:42.303Z,102420.16
2022-12-17T15:40:11.903Z,102418.50
2022-12-17T15:43:01.662Z,102426.63
2022-12-17T15:45:32.752Z,102427.75
2022-12-17T15:47:59.410Z,102440.13
2022-12-17T15:50:26.087Z,102444.25
2022-12-17T15:52:52.721Z,102450.91
2022-12-17T15:55:19.411Z,102449.88
2022-12-17T15:57:46.413Z,102446.69
2022-12-17T16:00:13.462Z,102450.88
2022-12-17T16:02:40.465Z,102452.69
2022-12-17T16:05:08.121Z,102451.31
2022-12-17T16:07:34.949Z,102451.00
2022-12-17T16:10:05.426Z,102458.63
2022-12-17T16:12:33.626Z,102465.31
2022-12-17T16:15:00.352Z,102457.66
2022-12-17T16:17:27.133Z,102469.03
2022-12-17T16:19:53.872Z,102469.03
2022-12-17T16:22:20.655Z,102480.44
2022-12-17T16:24:47.595Z,102485.34
2022-12-17T16:27:15.829Z,102473.31
2022-12-17T16:29:42.504Z,102481.56
2022-12-17T16:32:09.211Z,102484.88
2022-12-17T16:34:35.911Z,102500.53
2022-12-17T16:37:02.692Z,102494.13
2022-12-17T16:39:29.384Z,102499.38
2022-12-17T16:41:56.112Z,102504.47
2022-12-17T16:44:22.882Z,102508.84
2022-12-17T16:46:49.850Z,102494.28
2022-12-17T16:49:19.350Z,102497.44
2022-12-17T16:51:48.347Z,102494.91
2022-12-17T16:54:17.328Z,102499.66
2022-12-17T16:56:46.226Z,102521.59
2022-12-17T16:59:14.321Z,102513.13
2022-12-17T17:01:44.800Z,102515.38
2022-12-17T17:04:15.864Z,102519.06
2022-12-17T17:06:48.738Z,102515.78
2022-12-17T17:09:16.231Z,102518.69
2022-12-17T17:11:48.154Z,102508.41
2022-12-17T17:14:17.915Z,102523.13
2022-12-17T17:16:44.668Z,102526.75
2022-12-17T17:19:11.313Z,102525.84
2022-12-17T17:21:39.892Z,102531.06
2022-12-17T17:24:21.384Z,102523.78
2022-12-17T17:26:50.301Z,102534.97
2022-12-17T17:29:17.132Z,102537.47
2022-12-17T17:32:14.221Z,102555.13
2022-12-17T17:34:30.706Z,102551.72
2022-12-17T17:36:57.376Z,102555.47
2022-12-17T17:39:24.065Z,102565.03
2022-12-17T17:41:50.724Z,102558.72
2022-12-17T17:44:17.373Z,102555.53
2022-12-17T17:46:44.308Z,102565.91
2022-12-17T17:49:11.847Z,102555.94
2022-12-17T17:54:28.671Z,102551.44
2022-12-17T17:56:55.575Z,102553.84
2022-12-17T17:59:30.865Z,102557.63
2022-12-17T18:02:00.660Z,102540.84
2022-12-17T18:04:28.255Z,102537.38
2022-12-17T18:09:41.981Z,102523.09
2022-12-17T18:12:27.303Z,102514.13
2022-12-17T18:15:13.594Z,102512.66
2022-12-17T18:17:41.698Z,102511.97
2022-12-17T18:20:10.253Z,102509.38
2022-12-17T18:22:38.401Z,102505.28
2022-12-17T18:25:05.507Z,102515.78
2022-12-17T18:27:32.267Z,102508.81
2022-12-17T18:30:00.418Z,102506.53
2022-12-17T18:32:27.133Z,102500.97
2022-12-17T18:34:53.945Z,102508.22
2022-12-17T18:37:20.755Z,102504.66
2022-12-17T18:39:49.055Z,102502.00
2022-12-17T18:42:34.322Z,102495.19
2022-12-17T18:45:03.287Z,102489.19
2022-12-17T18:47:30.246Z,102492.59
2022-12-17T18:49:57.410Z,102491.06
2022-12-17T18:52:24.753Z,102486.00
2022-12-17T18:54:51.681Z,102486.84
2022-12-17T18:57:22.625Z,102495.59
2022-12-17T18:59:49.341Z,102519.88
2022-12-17T19:02:16.248Z,102519.06
2022-12-17T19:04:44.523Z,102520.63
2022-12-17T19:07:11.269Z,102516.44
2022-12-17T19:09:40.139Z,102531.28
2022-12-17T19:12:09.120Z,102524.09
2022-12-17T19:14:36.501Z,102526.97
2022-12-17T19:17:04.115Z,102520.81
2022-12-17T19:19:30.873Z,102522.53
2022-12-17T19:21:59.998Z,102529.50
2022-12-17T19:24:27.888Z,102534.72
2022-12-17T19:26:54.658Z,102536.50
2022-12-17T19:29:22.364Z,102527.75
2022-12-17T19:31:49.235Z,102535.81
2022-12-17T19:34:18.519Z,102533.13
2022-12-17T19:36:45.855Z,102535.88
2022-12-17T19:39:15.900Z,102537.97
2022-12-17T19:41:42.599Z,102521.00
2022-12-17T19:44:13.741Z,102534.41
2022-12-17T19:46:41.036Z,102529.72
2022-12-17T19:49:10.691Z,102527.38
2022-12-17T19:51:39.590Z,102536.00
2022-12-17T19:54:09.189Z,102517.66
2022-12-17T19:56:36.540Z,102543.41
2022-12-17T19:59:07.374Z,102543.16
2022-12-17T20:01:41.547Z,102539.72
2022-12-17T20:04:10.676Z,102542.66
2022-12-17T20:06:37.718Z,102551.94
2022-12-17T20:09:06.169Z,102549.44
2022-12-17T20:11:33.330Z,102543.44
2022-12-17T20:14:10.786Z,102548.69
2022-12-17T20:16:40.523Z,102539.16
2022-12-17T20:19:11.093Z,102533.44
2022-12-17T20:21:38.877Z,102530.06
2022-12-17T20:24:05.933Z,102537.97
2022-12-17T20:26:33.008Z,102537.22
2022-12-17T20:28:59.728Z,102541.34
2022-12-17T20:31:27.976Z,102543.22
2022-12-17T20:33:55.052Z,102537.06
2022-12-17T20:36:23.237Z,102547.50
2022-12-17T20:38:50.115Z,102539.66
2022-12-17T20:41:20.104Z,102558.84
2022-12-17T20:43:47.778Z,102548.78
2022-12-17T20:46:14.752Z,102553.91
2022-12-17T20:48:43.718Z,102553.88
2022-12-17T20:51:14.103Z,102555.69
2022-12-17T20:53:41.313Z,102553.00
2022-12-17T20:56:10.924Z,102559.91
2022-12-17T20:58:39.533Z,102564.31
2022-12-17T21:01:15.182Z,102564.91
2022-12-17T21:03:42.905Z,102566.78
2022-12-17T21:06:23.718Z,102559.81
2022-12-17T21:08:52.529Z,102553.56
2022-12-17T21:11:22.283Z,102548.47
2022-12-17T21:13:49.981Z,102549.31
2022-12-17T21:16:28.936Z,102566.13
2022-12-17T21:18:56.985Z,102573.09
2022-12-17T21:21:29.892Z,102575.81
2022-12-17T21:23:57.332Z,102575.94
2022-12-17T21:26:31.185Z,102576.84
2022-12-17T21:28:58.275Z,102579.28
2022-12-17T21:31:35.426Z,102578.28
2022-12-17T21:34:04.025Z,102572.38
2022-12-17T21:36:32.998Z,102579.50
2022-12-17T21:39:00.734Z,102572.66
2022-12-17T21:41:32.494Z,102570.72
2022-12-17T21:44:02.255Z,102558.66
2022-12-17T21:46:30.126Z,102561.25
2022-12-17T21:48:58.780Z,102556.16
2022-12-17T21:51:26.010Z,102555.25
2022-12-17T21:54:01.406Z,102563.25
2022-12-17T21:56:29.291Z,102553.41
2022-12-17T21:59:01.050Z,102557.63
2022-12-17T22:01:31.928Z,102556.97
2022-12-17T22:04:02.813Z,102552.53
2022-12-17T22:06:33.072Z,102559.44
2022-12-17T22:09:07.828Z,102561.25
2022-12-17T22:11:39.002Z,102569.16
2022-12-17T22:14:09.442Z,102578.06
2022-12-17T22:16:43.274Z,102568.28
2022-12-17T22:19:11.753Z,102569.25
2022-12-17T22:21:40.481Z,102568.59
2022-12-17T22:24:11.287Z,102559.91
2022-12-17T22:26:37.925Z,102562.63
2022-12-17T22:29:04.684Z,102563.19
2022-12-17T22:31:51.024Z,102579.75
2022-12-17T22:35:08.828Z,102579.84
2022-12-17T22:40:06.176Z,102580.78
2022-12-17T22:44:29.346Z,102589.28
2022-12-17T22:44:44.261Z,102587.69
2022-12-17T22:45:51.726Z,102571.91
2022-12-17T22:48:21.461Z,102578.97
2022-12-17T22:50:51.004Z,102583.97
2022-12-17T22:53:22.856Z,102588.25
2022-12-17T22:55:50.828Z,102589.44
2022-12-17T22:58:18.636Z,102586.94
2022-12-17T23:00:45.377Z,102583.53
2022-12-17T23:03:12.581Z,102580.97
2022-12-17T23:05:39.393Z,102581.09
2022-12-17T23:08:06.295Z,102576.75
2022-12-17T23:10:33.168Z,102580.13
2022-12-17T23:12:59.940Z,102586.94
2022-12-17T23:15:34.533Z,102587.69
2022-12-17T23:18:03.934Z,102580.72
2022-12-17T23:20:33.429Z,102584.19
2022-12-17T23:23:00.804Z,102587.66
2022-12-17T23:25:29.198Z,102586.72
2022-12-17T23:27:56.969Z,102583.47
2022-12-17T23:30:23.600Z,102584.13
2022-12-17T23:32:50.411Z,102581.63
2022-12-17T23:35:17.630Z,102579.84
2022-12-17T23:37:44.445Z,102578.19
2022-12-17T23:40:13.537Z,102587.91
2022-12-17T23:42:40.421Z,102587.91
2022-12-17T23:45:08.251Z,102584.44
2022-12-17T23:47:35.601Z,102585.31
2022-12-17T23:50:02.688Z,102590.25
2022-12-17T23:52:29.403Z,102581.47
2022-12-17T23:54:56.241Z,102586.72
2022-12-17T23:57:23.069Z,102597.88
2022-12-17T23:59:49.779Z,102598.03
